sensor_id;sensor_type;location;lat;lon;timestamp;temperature;humidity
49042;DHT22;34859;51.608;11.462;2024-02-28T12:01:43;7.10;99.90
49042;DHT22;34859;51.608;11.462;2024-02-28T12:04:29;7.30;99.90
49042;DHT22;34859;51.608;11.462;2024-02-28T12:07:15;7.30;99.90
49042;DHT22;34859;51.608;11.462;2024-02-28T12:10:01;7.20;99.90
49042;DHT22;34859;51.608;11.462;2024-02-28T12:12:47;7.20;99.90
49042;DHT22;34859;51.608;11.462;2024-02-28T12:15:35;7.40;99.90
49042;DHT22;34859;51.608;11.462;2024-02-28T12:18:21;7.50;99.90
49042;DHT22;34859;51.608;11.462;2024-02-28T12:21:07;7.60;99.90
49042;DHT22;34859;51.608;11.462;2024-02-28T12:23:53;7.80;99.90
49042;DHT22;34859;51.608;11.462;2024-02-28T12:26:40;7.70;99.90
49042;DHT22;34859;51.608;11.462;2024-02-28T12:29:26;7.70;99.90
49042;DHT22;34859;51.608;11.462;2024-02-28T12:32:12;7.80;99.90
49042;DHT22;34859;51.608;11.462;2024-02-28T12:34:58;7.80;99.90
49042;DHT22;34859;51.608;11.462;2024-02-28T12:37:44;7.80;99.90
49042;DHT22;34859;51.608;11.462;2024-02-28T12:40:30;7.70;99.90
49042;DHT22;34859;51.608;11.462;2024-02-28T12:43:15;7.80;99.90
49042;DHT22;34859;51.608;11.462;2024-02-28T12:46:01;7.70;99.90
49042;DHT22;34859;51.608;11.462;2024-02-28T12:48:47;7.90;99.90
49042;DHT22;34859;51.608;11.462;2024-02-28T12:51:37;8.00;99.90
49042;DHT22;34859;51.608;11.462;2024-02-28T12:54:23;8.00;99.90
49042;DHT22;34859;51.608;11.462;2024-02-28T12:57:09;8.20;99.90
49042;DHT22;34859;51.608;11.462;2024-02-28T12:59:58;8.20;99.90
49042;DHT22;34859;51.608;11.462;2024-02-28T13:02:44;8.10;99.90
49042;DHT22;34859;51.608;11.462;2024-02-28T13:05:31;8.00;99.90
49042;DHT22;34859;51.608;11.462;2024-02-28T13:08:18;8.10;99.90
49042;DHT22;34859;51.608;11.462;2024-02-28T13:11:04;8.20;99.90
49042;DHT22;34859;51.608;11.462;2024-02-28T13:13:50;8.30;99.90
49042;DHT22;34859;51.608;11.462;2024-02-28T13:16:37;8.20;99.90
49042;DHT22;34859;51.608;11.462;2024-02-28T13:19:23;8.20;99.90
49042;DHT22;34859;51.608;11.462;2024-02-28T13:22:09;8.30;99.90
49042;DHT22;34859;51.608;11.462;2024-02-28T13:24:55;8.30;99.90
49042;DHT22;34859;51.608;11.462;2024-02-28T13:27:41;8.30;99.90
49042;DHT22;34859;51.608;11.462;2024-02-28T13:30:27;8.40;99.90
49042;DHT22;34859;51.608;11.462;2024-02-28T13:33:13;8.40;99.90
49042;DHT22;34859;51.608;11.462;2024-02-28T13:35:58;8.40;99.90
49042;DHT22;34859;51.608;11.462;2024-02-28T13:38:45;8.30;99.90
49042;DHT22;34859;51.608;11.462;2024-02-28T13:41:31;8.40;99.90
49042;DHT22;34859;51.608;11.462;2024-02-28T13:44:18;8.40;99.90
49042;DHT22;34859;51.608;11.462;2024-02-28T13:47:04;8.30;99.90
49042;DHT22;34859;51.608;11.462;2024-02-28T13:49:50;8.30;99.90
49042;DHT22;34859;51.608;11.462;2024-02-28T13:52:36;8.50;99.90
49042;DHT22;34859;51.608;11.462;2024-02-28T13:55:22;8.40;99.90
49042;DHT22;34859;51.608;11.462;2024-02-28T13:58:10;8.30;99.90
49042;DHT22;34859;51.608;11.462;2024-02-28T14:00:56;8.40;99.90
49042;DHT22;34859;51.608;11.462;2024-02-28T14:03:42;8.40;99.90
49042;DHT22;34859;51.608;11.462;2024-02-28T14:06:28;8.50;99.90
49042;DHT22;34859;51.608;11.462;2024-02-28T14:09:14;8.50;99.90
49042;DHT22;34859;51.608;11.462;2024-02-28T14:12:00;8.40;99.90
49042;DHT22;34859;51.608;11.462;2024-02-28T14:14:46;8.30;99.90
49042;DHT22;34859;51.608;11.462;2024-02-28T14:17:32;8.40;99.90
49042;DHT22;34859;51.608;11.462;2024-02-28T14:20:18;8.60;99.90
49042;DHT22;34859;51.608;11.462;2024-02-28T14:23:04;8.70;99.90
49042;DHT22;34859;51.608;11.462;2024-02-28T14:25:51;8.80;99.90
49042;DHT22;34859;51.608;11.462;2024-02-28T14:28:37;8.80;99.90
49042;DHT22;34859;51.608;11.462;2024-02-28T14:31:25;8.70;99.90
49042;DHT22;34859;51.608;11.462;2024-02-28T14:34:11;8.70;99.90
49042;DHT22;34859;51.608;11.462;2024-02-28T14:36:57;8.70;99.90
49042;DHT22;34859;51.608;11.462;2024-02-28T14:39:46;8.60;99.90
49042;DHT22;34859;51.608;11.462;2024-02-28T14:42:32;8.60;99.90
49042;DHT22;34859;51.608;11.462;2024-02-28T14:45:20;8.60;99.90
49042;DHT22;34859;51.608;11.462;2024-02-28T14:48:07;8.60;99.90
49042;DHT22;34859;51.608;11.462;2024-02-28T14:50:53;8.60;99.90
49042;DHT22;34859;51.608;11.462;2024-02-28T14:53:39;8.50;99.90
49042;DHT22;34859;51.608;11.462;2024-02-28T14:56:25;8.50;99.90
49042;DHT22;34859;51.608;11.462;2024-02-28T14:59:13;8.50;99.90
49042;DHT22;34859;51.608;11.462;2024-02-28T15:01:59;8.50;99.90
49042;DHT22;34859;51.608;11.462;2024-02-28T15:04:45;8.40;99.90
49042;DHT22;34859;51.608;11.462;2024-02-28T15:07:32;8.30;99.90
49042;DHT22;34859;51.608;11.462;2024-02-28T15:10:18;8.30;99.90
49042;DHT22;34859;51.608;11.462;2024-02-28T15:13:06;8.30;99.90
49042;DHT22;34859;51.608;11.462;2024-02-28T15:15:53;8.30;99.90
49042;DHT22;34859;51.608;11.462;2024-02-28T15:18:39;8.20;99.90
49042;DHT22;34859;51.608;11.462;2024-02-28T15:21:25;8.10;99.90
49042;DHT22;34859;51.608;11.462;2024-02-28T15:24:13;8.00;99.90
49042;DHT22;34859;51.608;11.462;2024-02-28T15:27:00;7.90;99.90
49042;DHT22;34859;51.608;11.462;2024-02-28T15:29:46;7.90;99.90
49042;DHT22;34859;51.608;11.462;2024-02-28T15:32:32;7.80;99.90
49042;DHT22;34859;51.608;11.462;2024-02-28T15:35:18;7.70;99.90
49042;DHT22;34859;51.608;11.462;2024-02-28T15:38:06;7.70;99.90
49042;DHT22;34859;51.608;11.462;2024-02-28T15:40:52;7.70;99.90
49042;DHT22;34859;51.608;11.462;2024-02-28T15:43:38;7.70;99.90
49042;DHT22;34859;51.608;11.462;2024-02-28T15:46:24;7.60;99.90
49042;DHT22;34859;51.608;11.462;2024-02-28T15:49:10;7.50;99.90
49042;DHT22;34859;51.608;11.462;2024-02-28T15:51:56;7.40;99.90
49042;DHT22;34859;51.608;11.462;2024-02-28T15:54:42;7.40;99.90
49042;DHT22;34859;51.608;11.462;2024-02-28T15:57:28;7.30;99.90
49042;DHT22;34859;51.608;11.462;2024-02-28T16:00:14;7.10;99.90
49042;DHT22;34859;51.608;11.462;2024-02-28T16:03:00;7.00;99.90
49042;DHT22;34859;51.608;11.462;2024-02-28T16:05:46;7.00;99.90
49042;DHT22;34859;51.608;11.462;2024-02-28T16:08:32;6.80;99.90
49042;DHT22;34859;51.608;11.462;2024-02-28T16:11:18;6.60;99.90
49042;DHT22;34859;51.608;11.462;2024-02-28T16:14:04;6.50;99.90
49042;DHT22;34859;51.608;11.462;2024-02-28T16:16:50;6.40;99.90
49042;DHT22;34859;51.608;11.462;2024-02-28T16:19:36;6.30;99.90
49042;DHT22;34859;51.608;11.462;2024-02-28T16:22:22;6.20;99.90
49042;DHT22;34859;51.608;11.462;2024-02-28T16:25:08;6.00;99.90
49042;DHT22;34859;51.608;11.462;2024-02-28T16:27:54;5.90;99.90
49042;DHT22;34859;51.608;11.462;2024-02-28T16:30:40;5.80;99.90
49042;DHT22;34859;51.608;11.462;2024-02-28T16:33:32;5.70;99.90
49042;DHT22;34859;51.608;11.462;2024-02-28T16:36:17;5.60;99.90
49042;DHT22;34859;51.608;11.462;2024-02-28T16:39:03;5.50;99.90
49042;DHT22;34859;51.608;11.462;2024-02-28T16:41:49;5.30;99.90
49042;DHT22;34859;51.608;11.462;2024-02-28T16:44:35;5.20;99.90
49042;DHT22;34859;51.608;11.462;2024-02-28T16:47:21;5.10;99.90
49042;DHT22;34859;51.608;11.462;2024-02-28T16:50:09;4.90;99.90
49042;DHT22;34859;51.608;11.462;2024-02-28T16:52:55;4.90;99.90
49042;DHT22;34859;51.608;11.462;2024-02-28T16:55:41;4.80;99.90
49042;DHT22;34859;51.608;11.462;2024-02-28T16:58:28;4.70;99.90
49042;DHT22;34859;51.608;11.462;2024-02-28T17:01:16;4.60;99.90
49042;DHT22;34859;51.608;11.462;2024-02-28T17:04:02;4.60;99.90
49042;DHT22;34859;51.608;11.462;2024-02-28T17:06:48;4.50;99.90
49042;DHT22;34859;51.608;11.462;2024-02-28T17:09:35;4.30;99.90
49042;DHT22;34859;51.608;11.462;2024-02-28T17:12:22;4.20;99.90
49042;DHT22;34859;51.608;11.462;2024-02-28T17:15:08;4.20;99.90
49042;DHT22;34859;51.608;11.462;2024-02-28T17:17:55;4.10;99.90
49042;DHT22;34859;51.608;11.462;2024-02-28T17:20:41;4.10;99.90
49042;DHT22;34859;51.608;11.462;2024-02-28T17:23:27;4.00;99.90
49042;DHT22;34859;51.608;11.462;2024-02-28T17:26:13;4.00;99.90
49042;DHT22;34859;51.608;11.462;2024-02-28T17:29:00;4.00;99.90
49042;DHT22;34859;51.608;11.462;2024-02-28T17:31:46;3.80;99.90
49042;DHT22;34859;51.608;11.462;2024-02-28T17:34:32;3.80;99.90
49042;DHT22;34859;51.608;11.462;2024-02-28T17:37:18;3.80;99.90
49042;DHT22;34859;51.608;11.462;2024-02-28T17:40:06;3.80;99.90
49042;DHT22;34859;51.608;11.462;2024-02-28T17:42:53;3.90;99.90
49042;DHT22;34859;51.608;11.462;2024-02-28T17:45:39;3.90;99.90
49042;DHT22;34859;51.608;11.462;2024-02-28T17:48:25;3.70;99.90
49042;DHT22;34859;51.608;11.462;2024-02-28T17:51:14;3.70;99.90
49042;DHT22;34859;51.608;11.462;2024-02-28T17:54:00;3.70;99.90
49042;DHT22;34859;51.608;11.462;2024-02-28T17:56:46;3.60;99.90
49042;DHT22;34859;51.608;11.462;2024-02-28T17:59:32;3.60;99.90
49042;DHT22;34859;51.608;11.462;2024-02-28T18:02:18;3.70;99.90
49042;DHT22;34859;51.608;11.462;2024-02-28T18:05:05;3.60;99.90
49042;DHT22;34859;51.608;11.462;2024-02-28T18:07:51;3.70;99.90
49042;DHT22;34859;51.608;11.462;2024-02-28T18:10:42;3.70;99.90
49042;DHT22;34859;51.608;11.462;2024-02-28T18:13:28;3.70;99.90
49042;DHT22;34859;51.608;11.462;2024-02-28T18:16:15;3.60;99.90
49042;DHT22;34859;51.608;11.462;2024-02-28T18:19:32;3.60;99.90
49042;DHT22;34859;51.608;11.462;2024-02-28T18:22:40;3.70;99.90
49042;DHT22;34859;51.608;11.462;2024-02-28T18:25:54;3.60;99.90
49042;DHT22;34859;51.608;11.462;2024-02-28T18:33:08;3.40;99.90
49042;DHT22;34859;51.608;11.462;2024-02-28T18:36:00;3.40;99.90
49042;DHT22;34859;51.608;11.462;2024-02-28T18:38:55;3.40;99.90
49042;DHT22;34859;51.608;11.462;2024-02-28T18:41:42;3.20;99.90
49042;DHT22;34859;51.608;11.462;2024-02-28T18:44:30;3.20;99.90
49042;DHT22;34859;51.608;11.462;2024-02-28T18:47:17;3.20;99.90
49042;DHT22;34859;51.608;11.462;2024-02-28T18:50:05;3.30;99.90
49042;DHT22;34859;51.608;11.462;2024-02-28T18:53:16;3.30;99.90
49042;DHT22;34859;51.608;11.462;2024-02-28T18:56:03;3.20;99.90
49042;DHT22;34859;51.608;11.462;2024-02-28T18:59:32;3.10;99.90
49042;DHT22;34859;51.608;11.462;2024-02-28T19:02:42;2.90;99.90
49042;DHT22;34859;51.608;11.462;2024-02-28T19:05:28;2.90;99.90
